Scorff Hospital Heliport

FR-0047 · Morbihan, 布列塔尼半岛, 法国

罗盘
风向 的 风向 240° 直升机
风: 12 kt, 4 beaufort
0 ft 1.000 2.000 3.000 4.000 5.000
Cloud Cloud Cloud Cloud
SCT 700
METAR LFRH 191730Z AUTO 24012KT 9999 SCT007 20/17 Q1017 NOSIG

METAR Scorff Hospital Heliport - FR-0047

Scorff Hospital Heliport是,法国中的直升机场。 该机场位于纬度47,75364和经度-3,35607。 这个机场没有ICAO代码,我们使用FR-0047作为参考。 机场在Brest FIR中。

该航空气象观测是针对Lorient South Brittany (Bretagne Sud) Airport在2024年7月19日 19:30, 当地时间进行的。

机场观察

风向为240°,速度为12 kt。

可见度为10 km 或者更多。

有疏云,零星散落的云朵在700 ft的高度。 没有观察到天花板。

温度和风寒是20 °C。 露点为17 °C,相对湿度为83%。 海平面上的气压为1017 hPa (QNH)。

白天

今天,太阳从06:35升起,在22:04降落。 这适用于Scorff Hospital Heliport,世界夏令时可能有所不同。 当地时间与世界标准时间之间的时差为+2 小时。 夏令时目前正在进行中。

公司介绍

我们没有关于这个机场的公司信息。

体会

到Vliegles.nl去找飞行课程,跳伞和其他飞行体验。 浏览页面,了解Scorff Hospital Heliport附近所有可用的活动。 你也可以使用搜索功能来寻找你所在地附近的特定飞行课程、跳伞或其他飞行体验。

乌云

700 ft SCT 疏云,零星散落的云朵

温度 & 天气

温度 20 °C
露点 17 °C
相对湿度 83%
Kp-index 1 (0-9)

白天

日出
06:35
中午
14:20
日落
22:04 (1:58)

小工具

你想在你的网站上有一个关于Scorff Hospital Heliport的当前航空天气(METAR)的小部件吗?

显示HTML代码
报告变更